createdAt,value
2022-12-17T00:01:32.188Z,98268.28
2022-12-17T00:06:35.724Z,98274.94
2022-12-17T00:11:39.178Z,98259.41
2022-12-17T00:16:42.748Z,98254.38
2022-12-17T00:21:46.237Z,98262.38
2022-12-17T00:26:49.722Z,98257.09
2022-12-17T00:31:54.438Z,98255.59
2022-12-17T00:37:00.588Z,98256.03
2022-12-17T00:42:04.563Z,98238.81
2022-12-17T00:47:08.895Z,98249.47
2022-12-17T00:52:13.485Z,98239.75
2022-12-17T00:57:19.564Z,98239.75
2022-12-17T01:02:25.758Z,98247.13
2022-12-17T01:07:29.657Z,98238.78
2022-12-17T01:12:33.279Z,98246.88
2022-12-17T01:17:36.607Z,98249.34
2022-12-17T01:22:39.921Z,98248.38
2022-12-17T01:27:43.424Z,98243.25
2022-12-17T01:32:47.814Z,98241.84
2022-12-17T01:37:51.267Z,98241.25
2022-12-17T01:42:54.608Z,98250.41
2022-12-17T01:48:03.166Z,98243.94
2022-12-17T01:53:09.646Z,98243.63
2022-12-17T01:58:13.687Z,98253.91
2022-12-17T02:03:54.417Z,98249.34
2022-12-17T02:09:27.243Z,98254.16
2022-12-17T02:14:35.747Z,98247.94
2022-12-17T02:19:46.230Z,98253.34
2022-12-17T02:25:10.118Z,98246.31
2022-12-17T02:30:14.291Z,98250.66
2022-12-17T02:35:25.727Z,98253.09
2022-12-17T02:40:29.576Z,98254.16
2022-12-17T02:45:37.626Z,98264.94
2022-12-17T02:50:41.659Z,98256.84
2022-12-17T02:55:46.268Z,98256.59
2022-12-17T03:00:50.444Z,98256.03
2022-12-17T03:05:53.915Z,98258.63
2022-12-17T03:10:57.467Z,98263.09
2022-12-17T03:16:09.240Z,98259.78
2022-12-17T03:21:13.758Z,98272.31
2022-12-17T03:26:17.758Z,98268.44
2022-12-17T03:31:21.518Z,98281.59
2022-12-17T03:36:24.992Z,98280.66
2022-12-17T03:41:28.510Z,98291.09
2022-12-17T03:46:32.073Z,98291.56
2022-12-17T03:51:35.796Z,98302.09
2022-12-17T03:56:42.079Z,98304.22
2022-12-17T04:01:45.664Z,98307.72
2022-12-17T04:06:49.181Z,98319.56
2022-12-17T04:11:54.120Z,98311.94
2022-12-17T04:16:57.573Z,98314.06
2022-12-17T04:22:00.907Z,98323.19
2022-12-17T04:27:04.868Z,98330.91
2022-12-17T04:32:12.026Z,98338.66
2022-12-17T04:37:15.504Z,98338.28
2022-12-17T04:42:18.990Z,98338.53
2022-12-17T04:47:22.468Z,98345.31
2022-12-17T04:52:25.931Z,98342.38
2022-12-17T04:57:32.825Z,98344.63
2022-12-17T05:02:44.130Z,98351.22
2022-12-17T05:07:47.661Z,98371.38
2022-12-17T05:13:00.856Z,98370.66
2022-12-17T05:18:08.954Z,98362.94
2022-12-17T05:23:14.925Z,98373.25
2022-12-17T05:28:18.537Z,98380.16
2022-12-17T05:33:22.181Z,98384.06
2022-12-17T05:38:26.826Z,98377.97
2022-12-17T05:43:34.527Z,98388.44
2022-12-17T05:48:38.452Z,98392.06
2022-12-17T05:53:41.961Z,98394.97
2022-12-17T05:58:45.274Z,98404.81
2022-12-17T06:03:49.012Z,98398.94
2022-12-17T06:08:52.628Z,98409.28
2022-12-17T06:13:56.025Z,98407.97
2022-12-17T06:18:59.783Z,98410.44
2022-12-17T06:24:04.613Z,98405.63
2022-12-17T06:29:10.485Z,98410.41
2022-12-17T06:34:13.814Z,98418.63
2022-12-17T06:39:17.479Z,98416.84
2022-12-17T06:44:20.877Z,98418.84
2022-12-17T06:49:26.969Z,98418.13
2022-12-17T06:54:30.508Z,98424.69
2022-12-17T06:59:35.188Z,98425.63
2022-12-17T07:04:38.791Z,98431.38
2022-12-17T07:09:42.376Z,98434.22
2022-12-17T07:14:45.833Z,98430.19
2022-12-17T07:19:49.289Z,98422.31
2022-12-17T07:24:52.647Z,98424.06
2022-12-17T07:29:56.068Z,98416.38
2022-12-17T07:34:59.421Z,98418.09
2022-12-17T07:40:04.747Z,98422.28
2022-12-17T07:45:09.332Z,98418.88
2022-12-17T07:50:12.989Z,98423.31
2022-12-17T07:55:19.576Z,98423.16
2022-12-17T08:00:24.285Z,98414.16
2022-12-17T08:05:28.029Z,98406.69
2022-12-17T08:10:31.542Z,98405.22
2022-12-17T08:15:35.122Z,98411.28
2022-12-17T08:20:39.371Z,98392.47
2022-12-17T08:25:42.656Z,98393.94
2022-12-17T08:30:50.328Z,98391.38
2022-12-17T08:35:54.985Z,98380.94
2022-12-17T08:41:06.396Z,98369.53
2022-12-17T08:46:11.125Z,98371.25
2022-12-17T08:51:17.387Z,98361.34
2022-12-17T08:56:21.187Z,98350.34
2022-12-17T09:01:24.725Z,98337.25
2022-12-17T09:06:28.261Z,98330.81
2022-12-17T09:11:31.615Z,98329.00
2022-12-17T09:16:36.350Z,98314.25
2022-12-17T09:21:39.748Z,98313.56
2022-12-17T09:26:43.150Z,98305.16
2022-12-17T09:31:47.540Z,98299.25
2022-12-17T09:36:51.412Z,98290.09
2022-12-17T09:42:19.177Z,98289.06
2022-12-17T09:47:41.913Z,98287.28
2022-12-17T09:52:46.273Z,98285.44
2022-12-17T09:57:51.353Z,98277.88
2022-12-17T10:02:55.400Z,98265.44
2022-12-17T10:08:00.198Z,98269.31
2022-12-17T10:13:11.708Z,98267.19
2022-12-17T10:18:17.118Z,98261.00
2022-12-17T10:23:29.423Z,98261.84
2022-12-17T10:28:33.102Z,98257.53
2022-12-17T10:33:40.647Z,98258.63
2022-12-17T10:38:44.109Z,98248.06
2022-12-17T10:43:47.728Z,98243.75
2022-12-17T10:49:06.913Z,98238.63
2022-12-17T10:54:31.565Z,98239.75
2022-12-17T10:59:38.398Z,98229.13
2022-12-17T11:04:52.697Z,98225.63
2022-12-17T11:10:03.794Z,98217.50
2022-12-17T11:15:38.685Z,98221.88
2022-12-17T11:20:55.428Z,98222.16
2022-12-17T11:26:11.152Z,98219.47
2022-12-17T11:31:17.887Z,98218.38
2022-12-17T11:36:32.417Z,98222.47
2022-12-17T11:42:11.236Z,98222.50
2022-12-17T11:47:34.489Z,98226.59
2022-12-17T11:52:58.193Z,98222.25
2022-12-17T11:58:05.908Z,98227.13
2022-12-17T12:03:47.985Z,98215.44
2022-12-17T12:09:18.072Z,98221.44
2022-12-17T12:15:30.823Z,98224.13
2022-12-17T12:20:46.762Z,98225.22
2022-12-17T12:26:09.966Z,98224.41
2022-12-17T12:31:47.974Z,98223.59
2022-12-17T12:36:53.488Z,98226.03
2022-12-17T12:42:39.985Z,98214.94
2022-12-17T12:47:53.343Z,98216.81
2022-12-17T12:52:59.368Z,98219.53
2022-12-17T12:58:23.946Z,98223.06
2022-12-17T13:03:39.995Z,98224.84
2022-12-17T13:08:43.526Z,98224.50
2022-12-17T13:13:49.841Z,98220.63
2022-12-17T13:19:17.526Z,98218.06
2022-12-17T13:24:26.881Z,98216.50
2022-12-17T13:29:32.748Z,98224.88
2022-12-17T13:34:41.449Z,98228.00
2022-12-17T13:39:59.890Z,98221.09
2022-12-17T13:45:04.309Z,98224.78
2022-12-17T13:50:40.019Z,98234.19
2022-12-17T13:55:51.318Z,98228.31
2022-12-17T14:01:09.987Z,98226.59
2022-12-17T14:06:15.856Z,98237.00
2022-12-17T14:11:19.374Z,98237.97
2022-12-17T14:16:24.097Z,98234.81
2022-12-17T14:21:30.094Z,98238.53
2022-12-17T14:26:33.646Z,98246.78
2022-12-17T14:31:37.184Z,98246.28
2022-12-17T14:36:43.444Z,98256.47
2022-12-17T14:41:47.163Z,98263.38
2022-12-17T14:47:07.561Z,98264.28
2022-12-17T14:52:14.807Z,98262.59
2022-12-17T14:57:23.076Z,98272.50
2022-12-17T15:02:28.905Z,98277.81
2022-12-17T15:07:33.567Z,98269.06
2022-12-17T15:12:36.937Z,98277.66
2022-12-17T15:17:40.696Z,98277.59
2022-12-17T15:22:45.823Z,98282.66
2022-12-17T15:27:49.378Z,98282.09
2022-12-17T15:32:52.965Z,98292.53
2022-12-17T15:37:56.437Z,98290.34
2022-12-17T15:43:04.674Z,98297.28
2022-12-17T15:48:11.320Z,98295.66
2022-12-17T15:53:15.699Z,98301.06
2022-12-17T15:58:19.124Z,98306.47
2022-12-17T16:03:24.486Z,98299.06
2022-12-17T16:08:29.213Z,98307.78
2022-12-17T16:13:32.669Z,98303.19
2022-12-17T16:18:37.871Z,98308.34
2022-12-17T16:23:42.970Z,98306.16
2022-12-17T16:28:46.960Z,98308.03
2022-12-17T16:33:50.466Z,98309.88
2022-12-17T16:38:55.056Z,98311.19
2022-12-17T16:43:58.599Z,98306.06
2022-12-17T16:49:06.359Z,98314.16
2022-12-17T16:54:16.594Z,98310.84
2022-12-17T16:59:20.039Z,98303.25
2022-12-17T17:04:23.883Z,98298.31
2022-12-17T17:09:27.207Z,98310.19
2022-12-17T17:14:30.589Z,98302.56
2022-12-17T17:19:36.500Z,98296.59
2022-12-17T17:24:40.046Z,98294.34
2022-12-17T17:29:44.199Z,98298.38
2022-12-17T17:34:48.283Z,98292.16
2022-12-17T17:39:51.797Z,98298.84
2022-12-17T17:44:55.472Z,98300.16
2022-12-17T17:50:00.615Z,98299.56
2022-12-17T17:55:04.458Z,98304.81
2022-12-17T18:00:09.416Z,98307.69
2022-12-17T18:05:13.122Z,98305.94
2022-12-17T18:10:17.735Z,98310.75
2022-12-17T18:15:21.231Z,98306.81
2022-12-17T18:20:25.126Z,98304.94
2022-12-17T18:25:31.551Z,98306.56
2022-12-17T18:30:39.199Z,98317.38
2022-12-17T18:35:42.517Z,98316.25
2022-12-17T18:40:46.433Z,98321.56
2022-12-17T18:45:53.726Z,98327.28
2022-12-17T18:51:05.171Z,98319.44
2022-12-17T18:56:10.872Z,98313.56
2022-12-17T19:01:30.324Z,98324.09
2022-12-17T19:06:35.910Z,98325.00
2022-12-17T19:11:43.579Z,98328.38
2022-12-17T19:16:47.597Z,98331.16
2022-12-17T19:21:51.535Z,98328.44
2022-12-17T19:26:56.343Z,98323.78
2022-12-17T19:32:00.227Z,98322.97
2022-12-17T19:37:04.153Z,98331.53
2022-12-17T19:42:08.158Z,98335.00
2022-12-17T19:47:11.702Z,98336.00
2022-12-17T19:52:15.712Z,98329.94
2022-12-17T19:57:19.175Z,98342.63
2022-12-17T20:02:23.540Z,98331.47
2022-12-17T20:07:30.549Z,98331.94
2022-12-17T20:12:33.965Z,98332.94
2022-12-17T20:17:38.779Z,98332.09
2022-12-17T20:22:42.523Z,98331.78
2022-12-17T20:27:45.904Z,98330.16
2022-12-17T20:32:51.626Z,98334.97
2022-12-17T20:37:55.228Z,98333.91
2022-12-17T20:43:00.106Z,98326.84
2022-12-17T20:48:03.917Z,98329.00
2022-12-17T20:53:07.879Z,98318.69
2022-12-17T20:58:11.435Z,98325.13
2022-12-17T21:03:15.066Z,98316.69
2022-12-17T21:08:19.479Z,98334.19
2022-12-17T21:13:22.897Z,98329.75
2022-12-17T21:18:27.465Z,98328.13
2022-12-17T21:23:32.299Z,98326.50
2022-12-17T21:28:37.518Z,98319.22
2022-12-17T21:33:40.949Z,98317.31
2022-12-17T21:38:45.318Z,98307.59
2022-12-17T21:43:53.583Z,98321.59
2022-12-17T21:48:59.286Z,98314.44
2022-12-17T21:54:08.514Z,98311.38
2022-12-17T21:59:13.093Z,98310.22
2022-12-17T22:04:16.550Z,98310.97
2022-12-17T22:09:44.779Z,98306.03
2022-12-17T22:14:44.952Z,98309.53
2022-12-17T22:19:48.419Z,98312.50
2022-12-17T22:24:51.821Z,98305.69
2022-12-17T22:29:55.331Z,98305.09
2022-12-17T22:36:24.402Z,98313.44
2022-12-17T22:44:29.345Z,98311.00
2022-12-17T22:45:45.644Z,98309.13
2022-12-17T22:50:52.689Z,98313.34
2022-12-17T22:56:33.754Z,98310.31
2022-12-17T23:01:36.468Z,98319.25
2022-12-17T23:06:41.084Z,98317.59
2022-12-17T23:11:44.437Z,98316.19
2022-12-17T23:16:47.808Z,98325.84
2022-12-17T23:21:51.092Z,98318.69
2022-12-17T23:26:54.715Z,98323.38
2022-12-17T23:31:58.177Z,98321.19
2022-12-17T23:37:01.626Z,98318.13
2022-12-17T23:42:05.304Z,98324.47
2022-12-17T23:47:09.980Z,98321.69
2022-12-17T23:52:13.846Z,98321.31
2022-12-17T23:57:17.611Z,98323.44
